Time;durP1;ratioP1;P1;durP2;ratioP2;P2;SDS_P1;SDS_P2;PMS_P1;PMS_P2;Temp;Humidity;BMP_temperature;BMP_pressure;BME280_temperature;BME280_humidity;BME280_pressure;Samples;Min_cycle;Max_cycle;Signal;HPM_P1;HPM_P2
2021/08/09 00:00:16;;;;;;;2.90;1.77;;;14.20;99.90;;;;;;4983761;28;20033;-83
2021/08/09 00:02:41;;;;;;;3.95;1.48;;;14.20;99.90;;;;;;4986370;28;20027;-81
2021/08/09 00:05:07;;;;;;;3.25;1.77;;;14.20;99.90;;;;;;4985919;28;20034;-83
2021/08/09 00:07:33;;;;;;;1.77;1.60;;;14.20;99.90;;;;;;4982097;28;20041;-82
2021/08/09 00:09:59;;;;;;;3.45;1.67;;;14.20;99.90;;;;;;4990881;28;20423;-81
2021/08/09 00:12:24;;;;;;;2.30;1.83;;;14.10;99.90;;;;;;4985173;28;20429;-81
2021/08/09 00:14:50;;;;;;;2.78;1.52;;;14.10;99.90;;;;;;4990300;28;20030;-82
2021/08/09 00:17:15;;;;;;;1.98;1.75;;;14.10;99.90;;;;;;4984892;28;20106;-82
2021/08/09 00:19:41;;;;;;;3.70;1.88;;;14.10;99.90;;;;;;4989821;28;20628;-81
2021/08/09 00:22:07;;;;;;;3.05;1.50;;;14.10;99.90;;;;;;4980725;28;20607;-83
2021/08/09 00:24:32;;;;;;;6.90;1.80;;;14.10;99.90;;;;;;4986321;28;20040;-83
2021/08/09 00:26:58;;;;;;;2.38;1.85;;;14.10;99.90;;;;;;4987521;28;20493;-81
2021/08/09 00:29:23;;;;;;;2.00;1.73;;;14.00;99.90;;;;;;4981724;28;20348;-80
2021/08/09 00:31:49;;;;;;;1.65;1.55;;;14.10;99.90;;;;;;4985732;28;20411;-82
2021/08/09 00:34:15;;;;;;;3.00;1.45;;;14.10;99.90;;;;;;4991984;28;20030;-82
2021/08/09 00:36:40;;;;;;;4.78;1.70;;;14.10;99.90;;;;;;4977488;28;20070;-81
2021/08/09 00:39:06;;;;;;;2.25;1.60;;;14.00;99.90;;;;;;4989748;28;20030;-81
2021/08/09 00:41:31;;;;;;;4.20;2.05;;;14.00;99.90;;;;;;4981124;28;20561;-83
2021/08/09 00:43:57;;;;;;;3.80;1.85;;;14.00;99.90;;;;;;4987667;28;20494;-80
2021/08/09 00:46:23;;;;;;;3.40;1.70;;;14.00;99.90;;;;;;4977918;28;20098;-82
2021/08/09 00:48:48;;;;;;;3.58;2.08;;;13.90;99.90;;;;;;4987966;28;20406;-82
2021/08/09 00:51:14;;;;;;;1.75;1.65;;;13.90;99.90;;;;;;4983721;28;20042;-81
2021/08/09 00:53:40;;;;;;;2.90;1.98;;;13.90;99.90;;;;;;4989123;28;20505;-80
2021/08/09 00:56:06;;;;;;;3.47;2.13;;;13.90;99.90;;;;;;4984719;28;20031;-79
2021/08/09 00:58:33;;;;;;;5.28;2.30;;;13.90;99.90;;;;;;4985416;28;20023;-81
2021/08/09 01:01:01;;;;;;;2.38;1.88;;;13.90;99.90;;;;;;4989826;28;20046;-79
2021/08/09 01:03:27;;;;;;;2.40;1.75;;;13.80;99.90;;;;;;5326310;23;20058;-48
2021/08/09 01:05:53;;;;;;;4.32;2.30;;;13.90;99.90;;;;;;4970787;28;20249;-50
2021/08/09 01:08:37;;;;;;;4.07;1.88;;;13.80;99.90;;;;;;4971425;28;20026;-48
2021/08/09 01:11:09;;;;;;;2.45;1.80;;;13.80;99.90;;;;;;4970678;28;20035;-51
2021/08/09 01:13:50;;;;;;;4.07;2.20;;;13.90;99.90;;;;;;4970693;28;20019;-52
2021/08/09 01:16:18;;;;;;;2.75;1.92;;;13.90;99.90;;;;;;4962166;28;20686;-50
2021/08/09 01:18:47;;;;;;;4.18;1.92;;;13.90;99.90;;;;;;4971110;28;20073;-50
2021/08/09 01:21:17;;;;;;;2.97;1.90;;;13.90;99.90;;;;;;4970923;28;20027;-45
2021/08/09 01:24:07;;;;;;;4.43;1.90;;;13.90;99.90;;;;;;4971331;28;20053;-49
2021/08/09 01:26:53;;;;;;;3.28;1.85;;;13.90;99.90;;;;;;4965741;28;20107;-49
2021/08/09 01:29:27;;;;;;;2.38;1.73;;;13.90;99.90;;;;;;4967189;28;20030;-53
2021/08/09 01:31:54;;;;;;;4.20;1.98;;;13.90;99.90;;;;;;4971333;28;20027;-46
2021/08/09 01:34:21;;;;;;;3.55;2.00;;;13.90;99.90;;;;;;4970931;28;20026;-51
2021/08/09 01:36:50;;;;;;;2.33;1.67;;;13.90;99.90;;;;;;4970325;28;20031;-47
2021/08/09 01:39:16;;;;;;;3.17;1.90;;;13.90;99.90;;;;;;4970745;28;20031;-51
2021/08/09 01:41:43;;;;;;;4.60;2.03;;;13.90;99.90;;;;;;4970670;28;20517;-48
2021/08/09 01:44:09;;;;;;;4.50;1.90;;;13.90;99.90;;;;;;4969167;28;20548;-56
2021/08/09 01:46:36;;;;;;;6.40;2.22;;;13.90;99.90;;;;;;4970667;28;20547;-47
2021/08/09 01:49:04;;;;;;;3.40;2.20;;;14.00;99.90;;;;;;4970556;28;20023;-50
2021/08/09 01:51:32;;;;;;;3.92;2.00;;;14.00;99.90;;;;;;4969819;28;20018;-50
2021/08/09 01:53:59;;;;;;;2.63;2.15;;;14.00;99.90;;;;;;4970260;28;20598;-48
2021/08/09 01:56:24;;;;;;;5.75;2.00;;;14.00;99.90;;;;;;4970146;28;20027;-49
2021/08/09 01:58:51;;;;;;;3.63;2.55;;;14.00;99.90;;;;;;4970454;28;20046;-54
2021/08/09 02:01:17;;;;;;;5.22;2.45;;;14.10;99.90;;;;;;4963120;28;20015;-46
2021/08/09 02:03:43;;;;;;;2.75;1.85;;;14.10;99.90;;;;;;4969955;28;20023;-49
2021/08/09 02:06:09;;;;;;;3.85;2.13;;;14.10;99.90;;;;;;4969802;28;20117;-50
2021/08/09 02:08:35;;;;;;;4.22;1.58;;;14.10;99.90;;;;;;4970040;28;20386;-50
2021/08/09 02:11:08;;;;;;;3.40;1.90;;;14.10;99.90;;;;;;4970161;28;20029;-47
2021/08/09 02:13:45;;;;;;;5.05;2.10;;;14.20;99.90;;;;;;4969519;28;20070;-49
2021/08/09 02:16:14;;;;;;;5.70;2.42;;;14.20;99.90;;;;;;4952477;28;20031;-52
2021/08/09 02:18:48;;;;;;;4.78;2.13;;;14.20;99.90;;;;;;4970137;28;20046;-48
2021/08/09 02:21:25;;;;;;;4.07;2.10;;;14.20;99.90;;;;;;4969808;28;20023;-47
2021/08/09 02:23:57;;;;;;;1.92;1.70;;;14.20;99.90;;;;;;4969935;28;20484;-51
2021/08/09 02:26:52;;;;;;;5.97;2.17;;;14.30;99.90;;;;;;4969437;28;20458;-53
2021/08/09 02:29:24;;;;;;;3.15;2.10;;;14.30;99.90;;;;;;4968313;28;20031;-49
2021/08/09 02:31:50;;;;;;;4.00;1.67;;;14.30;99.90;;;;;;4970055;28;20050;-50
2021/08/09 02:34:19;;;;;;;2.95;2.00;;;14.30;99.90;;;;;;4967557;28;20022;-49
2021/08/09 02:36:45;;;;;;;5.97;1.98;;;14.40;99.90;;;;;;4969386;28;20512;-48
2021/08/09 02:39:13;;;;;;;2.88;1.92;;;14.40;99.90;;;;;;4969225;28;20492;-53
2021/08/09 02:41:40;;;;;;;2.95;2.00;;;14.40;99.90;;;;;;4969776;28;20624;-48
2021/08/09 02:44:06;;;;;;;2.63;1.60;;;14.40;99.90;;;;;;4967705;28;20515;-53
2021/08/09 02:46:33;;;;;;;4.18;1.75;;;14.40;99.90;;;;;;4969164;28;20029;-53
2021/08/09 02:48:59;;;;;;;4.47;2.03;;;14.40;99.90;;;;;;4968134;28;20647;-47
2021/08/09 02:51:26;;;;;;;2.47;1.95;;;14.40;99.90;;;;;;4968939;28;20477;-47
2021/08/09 02:53:52;;;;;;;6.00;2.30;;;14.40;99.90;;;;;;4969707;28;20023;-52
2021/08/09 02:56:24;;;;;;;4.20;2.42;;;14.40;99.90;;;;;;4969269;28;20019;-51
2021/08/09 02:58:51;;;;;;;3.08;2.22;;;14.40;99.90;;;;;;4969651;28;20101;-48
2021/08/09 03:01:18;;;;;;;1.98;1.80;;;14.40;99.90;;;;;;4965377;28;20050;-47
2021/08/09 03:03:47;;;;;;;4.95;2.90;;;14.40;99.90;;;;;;4969196;28;20152;-48
2021/08/09 03:06:13;;;;;;;4.50;2.42;;;14.40;99.90;;;;;;4969346;28;20027;-49
2021/08/09 03:08:39;;;;;;;4.30;2.33;;;14.40;99.90;;;;;;4969295;28;20030;-49
2021/08/09 03:11:05;;;;;;;3.78;2.38;;;14.30;99.90;;;;;;4967885;28;20018;-54
2021/08/09 03:13:31;;;;;;;4.22;2.70;;;14.30;99.90;;;;;;4969193;28;20023;-48
2021/08/09 03:15:57;;;;;;;3.83;2.33;;;14.30;99.90;;;;;;4967607;28;20073;-51
2021/08/09 03:18:23;;;;;;;2.13;1.98;;;14.30;99.90;;;;;;4969241;28;20023;-51
2021/08/09 03:20:48;;;;;;;4.57;1.75;;;14.30;99.90;;;;;;4969025;28;20041;-48
2021/08/09 03:23:14;;;;;;;5.90;2.22;;;14.30;99.90;;;;;;4967912;28;20077;-49
2021/08/09 03:25:39;;;;;;;3.85;2.15;;;14.20;99.90;;;;;;4968841;28;20378;-46
2021/08/09 03:28:06;;;;;;;2.55;1.92;;;14.20;99.90;;;;;;4968761;28;20117;-48
2021/08/09 03:30:32;;;;;;;3.55;1.67;;;14.20;99.90;;;;;;4969103;28;20085;-48
2021/08/09 03:32:57;;;;;;;5.10;2.30;;;14.20;99.90;;;;;;4969326;28;20026;-50
2021/08/09 03:35:23;;;;;;;3.53;2.00;;;14.10;99.90;;;;;;4970105;28;20101;-53
2021/08/09 03:37:49;;;;;;;3.60;2.38;;;14.10;99.90;;;;;;4972897;28;20030;-48
2021/08/09 03:40:15;;;;;;;6.85;2.65;;;14.10;99.90;;;;;;4972474;28;20152;-47
2021/08/09 03:42:40;;;;;;;4.43;2.50;;;14.10;99.90;;;;;;4972637;28;20476;-48
2021/08/09 03:45:07;;;;;;;3.13;2.08;;;14.10;99.90;;;;;;4972374;28;20119;-50
2021/08/09 03:47:33;;;;;;;5.45;2.58;;;14.10;99.90;;;;;;4972446;28;20027;-48
2021/08/09 03:49:59;;;;;;;6.70;2.22;;;14.00;99.90;;;;;;4972428;28;20019;-48
2021/08/09 03:52:24;;;;;;;5.82;2.42;;;14.00;99.90;;;;;;4972710;28;20018;-48
2021/08/09 03:54:50;;;;;;;5.78;2.47;;;14.00;99.90;;;;;;4972089;28;20037;-48
2021/08/09 03:57:16;;;;;;;2.40;2.20;;;14.00;99.90;;;;;;4972466;28;20035;-51
2021/08/09 03:59:41;;;;;;;4.80;2.17;;;13.90;99.90;;;;;;4972640;28;20135;-52
2021/08/09 04:02:09;;;;;;;6.03;2.47;;;13.90;99.90;;;;;;4972607;28;20437;-47
2021/08/09 04:04:35;;;;;;;3.70;2.35;;;13.90;99.90;;;;;;4972224;28;20029;-46
2021/08/09 04:07:00;;;;;;;5.00;2.38;;;13.90;99.90;;;;;;4972001;28;20094;-49
2021/08/09 04:09:26;;;;;;;2.50;2.30;;;13.90;99.90;;;;;;4972344;28;20019;-50
2021/08/09 04:11:51;;;;;;;6.10;2.75;;;13.90;99.90;;;;;;4971542;28;20031;-49
2021/08/09 04:14:17;;;;;;;3.72;2.17;;;13.80;99.90;;;;;;4972705;28;20026;-49
2021/08/09 04:16:42;;;;;;;5.05;2.65;;;13.80;99.90;;;;;;4972304;28;20186;-51
2021/08/09 04:19:08;;;;;;;4.07;2.50;;;13.80;99.90;;;;;;4972002;28;20473;-47
2021/08/09 04:21:33;;;;;;;3.53;1.83;;;13.90;99.90;;;;;;4972171;28;20027;-51
2021/08/09 04:23:59;;;;;;;3.75;2.20;;;13.90;99.90;;;;;;4971974;28;20113;-46
2021/08/09 04:26:24;;;;;;;3.40;2.38;;;13.80;99.90;;;;;;4972176;28;20023;-51
2021/08/09 04:28:50;;;;;;;6.47;2.50;;;13.80;99.90;;;;;;4972157;28;20042;-51
2021/08/09 04:31:17;;;;;;;6.38;2.20;;;13.80;99.90;;;;;;4971931;28;20112;-47
2021/08/09 04:33:47;;;;;;;5.90;2.45;;;13.80;99.90;;;;;;4972057;28;20027;-51
2021/08/09 04:36:13;;;;;;;4.65;2.22;;;13.80;99.90;;;;;;4971245;28;20081;-48
2021/08/09 04:38:40;;;;;;;3.38;2.47;;;13.90;99.90;;;;;;4972552;28;20034;-52
2021/08/09 04:41:07;;;;;;;4.40;2.55;;;13.80;99.90;;;;;;4972196;28;20025;-50
2021/08/09 04:43:37;;;;;;;5.72;2.60;;;13.80;99.90;;;;;;4971874;28;20046;-48
2021/08/09 04:46:04;;;;;;;4.68;2.17;;;13.80;99.90;;;;;;4970542;28;20496;-50
2021/08/09 04:48:30;;;;;;;7.43;2.42;;;13.80;99.90;;;;;;4971139;28;20073;-49
2021/08/09 04:50:56;;;;;;;2.72;2.17;;;13.90;99.90;;;;;;4971438;28;20026;-48
2021/08/09 04:53:21;;;;;;;5.32;2.38;;;13.80;99.90;;;;;;4970416;28;20027;-51
2021/08/09 04:55:47;;;;;;;6.43;2.58;;;13.80;99.90;;;;;;4970859;28;20018;-46
2021/08/09 04:58:13;;;;;;;4.40;2.72;;;13.80;99.90;;;;;;4971436;28;20030;-46
2021/08/09 05:00:38;;;;;;;2.83;2.40;;;13.90;99.90;;;;;;4970289;28;20530;-49
2021/08/09 05:03:04;;;;;;;4.85;2.30;;;13.90;99.90;;;;;;4970909;28;20049;-49
2021/08/09 05:05:29;;;;;;;8.80;3.08;;;13.90;99.90;;;;;;4970978;28;20078;-47
2021/08/09 05:07:58;;;;;;;4.22;2.33;;;13.90;99.90;;;;;;4971554;28;20090;-45
2021/08/09 05:10:25;;;;;;;3.38;2.58;;;13.90;99.90;;;;;;4971031;28;20265;-49
2021/08/09 05:12:50;;;;;;;9.20;2.55;;;13.90;99.90;;;;;;4971281;28;20367;-53
2021/08/09 05:15:16;;;;;;;5.93;2.90;;;13.90;99.90;;;;;;4965591;28;20038;-51
2021/08/09 05:17:42;;;;;;;3.85;2.30;;;14.00;99.90;;;;;;4971184;28;20019;-48
2021/08/09 05:20:08;;;;;;;4.13;2.22;;;14.00;99.90;;;;;;4970771;28;20034;-49
2021/08/09 05:22:35;;;;;;;7.10;2.55;;;14.00;99.90;;;;;;4971359;28;20034;-49
2021/08/09 05:25:03;;;;;;;4.45;2.65;;;14.00;99.90;;;;;;4970929;28;20042;-50
2021/08/09 05:27:28;;;;;;;6.38;2.63;;;14.00;99.90;;;;;;4970545;28;20512;-54
2021/08/09 05:29:54;;;;;;;4.65;2.80;;;14.10;99.90;;;;;;4970800;28;20043;-50
2021/08/09 05:32:20;;;;;;;6.72;2.88;;;14.10;99.90;;;;;;4970366;28;20019;-45
2021/08/09 05:34:46;;;;;;;3.58;2.53;;;14.10;99.90;;;;;;4970351;28;20135;-47
2021/08/09 05:37:12;;;;;;;3.22;2.85;;;14.20;99.90;;;;;;4970948;28;20158;-48
2021/08/09 05:39:38;;;;;;;8.52;3.00;;;14.20;99.90;;;;;;4970735;28;20027;-53
2021/08/09 05:42:04;;;;;;;5.72;2.72;;;14.20;99.90;;;;;;4970660;28;20042;-47
2021/08/09 05:44:30;;;;;;;5.60;3.22;;;14.30;99.90;;;;;;4970003;28;20039;-50
2021/08/09 05:46:55;;;;;;;5.10;2.30;;;14.30;99.90;;;;;;4970455;28;20110;-53
2021/08/09 05:49:21;;;;;;;5.60;2.53;;;14.30;99.90;;;;;;4970278;28;20046;-50
2021/08/09 05:51:46;;;;;;;8.05;2.72;;;14.40;99.90;;;;;;4970558;28;20023;-47
2021/08/09 05:54:12;;;;;;;3.92;2.20;;;14.50;99.90;;;;;;4970591;28;20098;-47
2021/08/09 05:56:38;;;;;;;5.15;2.67;;;14.50;99.90;;;;;;4969968;28;20030;-48
2021/08/09 05:59:04;;;;;;;6.32;2.78;;;14.50;99.90;;;;;;4969911;28;20054;-52
2021/08/09 06:01:30;;;;;;;3.60;2.67;;;14.60;99.90;;;;;;4970552;28;20025;-51
2021/08/09 06:03:55;;;;;;;4.93;3.25;;;14.60;99.90;;;;;;4968916;28;20560;-50
2021/08/09 06:06:21;;;;;;;7.78;3.28;;;14.70;99.90;;;;;;4970245;28;20568;-51
2021/08/09 06:08:48;;;;;;;6.30;2.70;;;14.70;99.90;;;;;;4970455;28;20034;-50
2021/08/09 06:11:14;;;;;;;7.93;2.70;;;14.80;99.90;;;;;;4970163;28;20097;-52
2021/08/09 06:13:40;;;;;;;9.75;2.65;;;14.80;99.90;;;;;;4969522;28;20023;-47
2021/08/09 06:16:05;;;;;;;5.18;2.85;;;14.90;99.90;;;;;;4970126;28;20031;-50
2021/08/09 06:18:33;;;;;;;4.35;2.75;;;15.00;99.90;;;;;;4969647;28;20041;-51
2021/08/09 06:20:59;;;;;;;12.50;3.75;;;15.00;99.90;;;;;;4969862;28;20551;-52
2021/08/09 06:23:25;;;;;;;7.05;2.75;;;15.10;99.90;;;;;;4970071;28;20031;-52
2021/08/09 06:25:50;;;;;;;5.38;3.28;;;15.20;99.90;;;;;;4969586;28;20035;-52
2021/08/09 06:28:16;;;;;;;7.85;2.58;;;15.30;99.90;;;;;;4962125;28;20019;-53
2021/08/09 06:30:41;;;;;;;5.82;2.70;;;15.40;99.90;;;;;;4969751;28;20026;-48
2021/08/09 06:33:07;;;;;;;8.10;3.03;;;15.50;99.90;;;;;;4969362;28;20039;-47
2021/08/09 06:35:32;;;;;;;6.05;2.35;;;15.60;99.90;;;;;;4969433;28;20097;-46
2021/08/09 06:37:58;;;;;;;4.38;2.38;;;15.70;99.90;;;;;;4969839;28;20074;-49
2021/08/09 06:40:24;;;;;;;4.72;2.72;;;15.70;99.90;;;;;;4970035;28;20030;-50
2021/08/09 06:42:49;;;;;;;8.32;3.75;;;15.90;99.90;;;;;;4969987;28;20067;-48
2021/08/09 06:45:15;;;;;;;5.57;2.80;;;16.00;99.90;;;;;;4961780;28;20090;-48
2021/08/09 06:47:40;;;;;;;5.90;2.30;;;16.10;99.90;;;;;;4956231;28;20027;-50
2021/08/09 06:50:06;;;;;;;5.78;2.63;;;16.20;99.90;;;;;;4959880;28;20028;-48
2021/08/09 06:52:33;;;;;;;5.35;2.80;;;16.30;99.90;;;;;;4954337;28;20375;-47
2021/08/09 06:54:59;;;;;;;4.43;2.40;;;16.50;99.90;;;;;;4958159;28;20027;-47
2021/08/09 06:57:24;;;;;;;4.13;2.85;;;16.60;99.90;;;;;;4957548;28;20573;-49
2021/08/09 06:59:50;;;;;;;9.07;2.72;;;16.70;99.90;;;;;;4969133;28;20097;-48
2021/08/09 07:02:15;;;;;;;3.45;2.13;;;16.80;99.90;;;;;;4967728;28;20029;-48
2021/08/09 07:04:41;;;;;;;6.30;2.65;;;16.90;99.90;;;;;;4968884;28;20068;-50
2021/08/09 07:07:07;;;;;;;5.78;2.20;;;17.00;99.90;;;;;;4969193;28;20049;-47
2021/08/09 07:09:32;;;;;;;7.93;3.20;;;17.00;99.90;;;;;;4968882;28;20459;-49
2021/08/09 07:11:58;;;;;;;4.50;2.60;;;17.10;99.90;;;;;;4969293;28;20023;-50
2021/08/09 07:14:23;;;;;;;5.03;2.80;;;17.00;99.90;;;;;;4969483;28;20497;-50
2021/08/09 07:16:50;;;;;;;9.27;3.25;;;17.00;99.90;;;;;;4969118;28;20098;-46
2021/08/09 07:19:16;;;;;;;4.18;2.78;;;17.00;99.90;;;;;;4969638;28;20015;-50
2021/08/09 07:21:41;;;;;;;8.68;2.97;;;17.10;99.90;;;;;;4969898;28;20030;-53
2021/08/09 07:24:07;;;;;;;6.30;3.00;;;17.10;99.90;;;;;;4969187;28;20031;-51
2021/08/09 07:26:32;;;;;;;7.70;3.10;;;17.20;99.90;;;;;;4968933;28;20027;-54
2021/08/09 07:28:59;;;;;;;7.30;2.97;;;17.40;99.90;;;;;;4968660;28;20106;-53
2021/08/09 07:31:24;;;;;;;7.18;3.03;;;17.50;99.90;;;;;;4968685;28;20058;-51
2021/08/09 07:33:50;;;;;;;7.55;2.53;;;17.50;99.90;;;;;;4969221;28;20046;-50
2021/08/09 07:36:15;;;;;;;4.35;2.30;;;17.60;99.90;;;;;;4968459;28;20030;-51
2021/08/09 07:38:41;;;;;;;8.20;2.72;;;17.60;99.90;;;;;;4968721;28;20547;-52
2021/08/09 07:41:07;;;;;;;3.72;2.42;;;17.70;99.90;;;;;;4969084;28;20027;-54
2021/08/09 07:43:32;;;;;;;5.82;2.35;;;17.70;99.90;;;;;;4968628;28;20670;-54
2021/08/09 07:45:58;;;;;;;5.63;2.30;;;17.70;99.90;;;;;;4968513;28;20166;-53
2021/08/09 07:48:24;;;;;;;5.55;2.85;;;17.80;99.90;;;;;;4968767;28;20113;-50
2021/08/09 07:50:50;;;;;;;8.38;3.15;;;17.80;99.90;;;;;;4968951;28;20046;-50
2021/08/09 07:53:15;;;;;;;7.75;3.05;;;17.80;99.90;;;;;;4968474;28;20022;-46
2021/08/09 07:55:41;;;;;;;6.93;3.85;;;17.80;99.90;;;;;;4968624;28;20023;-53
2021/08/09 07:58:07;;;;;;;6.10;2.72;;;17.80;99.90;;;;;;4968595;28;20628;-51
2021/08/09 08:00:32;;;;;;;6.75;2.65;;;17.80;99.90;;;;;;4968744;28;20074;-46
2021/08/09 08:03:00;;;;;;;9.38;3.00;;;17.90;99.90;;;;;;4968549;28;20043;-52
2021/08/09 08:05:26;;;;;;;7.03;2.50;;;17.90;99.90;;;;;;4968581;28;20029;-47
2021/08/09 08:07:51;;;;;;;8.68;3.35;;;17.90;99.90;;;;;;4968942;28;20102;-51
2021/08/09 08:10:17;;;;;;;5.95;3.67;;;18.00;99.90;;;;;;4968584;28;20065;-47
2021/08/09 08:12:42;;;;;;;4.30;2.75;;;18.10;99.90;;;;;;4969654;28;20026;-47
2021/08/09 08:15:08;;;;;;;6.78;2.60;;;18.30;99.90;;;;;;4968319;28;20035;-49
2021/08/09 08:17:34;;;;;;;7.80;2.67;;;18.40;99.90;;;;;;4968928;28;20030;-51
2021/08/09 08:20:00;;;;;;;5.65;3.28;;;18.50;99.90;;;;;;4968676;28;20027;-55
2021/08/09 08:22:26;;;;;;;5.53;2.70;;;18.70;99.90;;;;;;4971171;28;20061;-54
2021/08/09 08:24:51;;;;;;;6.00;2.67;;;18.70;99.90;;;;;;4971311;28;20062;-50
2021/08/09 08:27:17;;;;;;;6.50;2.30;;;18.90;99.90;;;;;;4971379;28;20031;-53
2021/08/09 08:29:42;;;;;;;5.85;2.72;;;19.10;99.90;;;;;;4971911;28;20019;-50
2021/08/09 08:32:08;;;;;;;6.15;3.15;;;19.20;99.90;;;;;;4971637;28;20023;-54
2021/08/09 08:34:34;;;;;;;5.65;2.63;;;19.30;99.90;;;;;;4970864;28;20806;-51
2021/08/09 08:37:00;;;;;;;8.05;2.70;;;19.30;99.90;;;;;;4971765;28;20110;-49
2021/08/09 08:39:25;;;;;;;5.72;2.60;;;19.30;99.90;;;;;;4971152;28;20134;-50
2021/08/09 08:41:52;;;;;;;5.18;3.05;;;19.30;99.90;;;;;;4970118;28;20390;-51
2021/08/09 08:44:19;;;;;;;7.10;2.85;;;19.40;99.90;;;;;;4970890;28;20015;-47
2021/08/09 08:46:46;;;;;;;4.65;2.15;;;19.40;99.90;;;;;;4958554;28;20054;-50
2021/08/09 08:49:14;;;;;;;4.72;2.95;;;19.50;99.90;;;;;;4958314;28;20069;-46
2021/08/09 08:51:46;;;;;;;8.05;2.95;;;19.50;99.90;;;;;;4969928;28;20011;-51
2021/08/09 08:54:14;;;;;;;4.80;2.40;;;19.60;99.90;;;;;;4970350;28;20110;-51
2021/08/09 08:56:42;;;;;;;5.22;2.67;;;19.70;99.90;;;;;;4969587;28;20029;-54
2021/08/09 08:59:13;;;;;;;8.13;2.50;;;19.80;99.90;;;;;;4969641;28;20030;-53
2021/08/09 09:01:44;;;;;;;5.93;3.13;;;19.80;99.90;;;;;;4970260;28;20102;-51
2021/08/09 09:04:39;;;;;;;6.35;2.17;;;19.90;99.90;;;;;;4969900;28;20031;-49
2021/08/09 09:07:08;;;;;;;5.80;2.15;;;20.10;99.90;;;;;;4969392;28;20139;-48
2021/08/09 09:09:38;;;;;;;6.43;2.33;;;20.20;99.90;;;;;;4971253;28;20022;-47
2021/08/09 09:12:18;;;;;;;8.45;2.47;;;20.10;99.90;;;;;;4970822;28;20026;-52
2021/08/09 09:14:44;;;;;;;6.63;2.58;;;20.20;99.90;;;;;;4970800;28;20080;-52
2021/08/09 09:17:10;;;;;;;5.32;2.22;;;20.20;99.90;;;;;;4970785;28;20019;-50
2021/08/09 09:19:36;;;;;;;5.10;2.40;;;20.10;99.90;;;;;;4971054;28;20034;-50
2021/08/09 09:22:04;;;;;;;6.18;2.60;;;20.10;99.90;;;;;;4970602;28;20023;-49
2021/08/09 09:24:30;;;;;;;3.55;2.22;;;20.00;99.90;;;;;;4970224;28;20043;-50
2021/08/09 09:27:02;;;;;;;4.93;2.85;;;19.90;99.90;;;;;;4969392;28;20034;-52
2021/08/09 09:29:37;;;;;;;4.13;1.83;;;20.00;99.90;;;;;;4970041;28;20019;-50
2021/08/09 09:32:19;;;;;;;5.55;2.22;;;20.00;99.90;;;;;;4970982;28;20393;-49
2021/08/09 09:34:51;;;;;;;6.10;1.77;;;20.00;99.90;;;;;;4966325;28;20022;-51
2021/08/09 09:37:38;;;;;;;7.10;3.00;;;20.00;99.90;;;;;;4964873;28;20031;-53
2021/08/09 09:40:10;;;;;;;5.55;2.40;;;19.90;99.90;;;;;;4970623;28;20058;-52
2021/08/09 09:42:39;;;;;;;4.40;2.42;;;19.80;99.90;;;;;;4970955;28;20031;-51
2021/08/09 09:45:30;;;;;;;5.60;1.98;;;19.80;99.90;;;;;;4968973;28;20042;-50
2021/08/09 09:48:07;;;;;;;6.80;2.28;;;19.80;99.90;;;;;;4970347;28;20015;-48
2021/08/09 09:50:41;;;;;;;6.93;2.63;;;19.90;99.90;;;;;;4970425;28;20239;-49
2021/08/09 09:53:15;;;;;;;5.65;2.55;;;20.20;99.90;;;;;;4970157;28;20405;-52
2021/08/09 09:55:42;;;;;;;7.15;2.42;;;20.40;99.90;;;;;;4969939;28;20027;-50
2021/08/09 09:58:08;;;;;;;5.68;2.60;;;20.50;99.90;;;;;;4970003;28;20027;-52
2021/08/09 10:00:34;;;;;;;6.72;2.42;;;20.60;99.90;;;;;;4970243;28;20034;-52
2021/08/09 10:03:00;;;;;;;5.82;2.63;;;20.90;99.90;;;;;;4970031;28;20453;-49
2021/08/09 10:05:26;;;;;;;6.05;2.42;;;21.10;99.90;;;;;;4968927;28;20392;-52
2021/08/09 10:07:53;;;;;;;4.53;2.30;;;21.30;99.90;;;;;;4969932;28;20026;-55
2021/08/09 10:10:24;;;;;;;4.47;2.00;;;21.50;99.90;;;;;;4969833;28;20050;-53
2021/08/09 10:12:51;;;;;;;3.10;2.08;;;21.80;99.90;;;;;;4970211;28;20022;-54
2021/08/09 10:15:19;;;;;;;6.43;2.03;;;21.90;99.90;;;;;;4964825;28;20031;-52
2021/08/09 10:17:47;;;;;;;8.05;2.20;;;21.90;99.90;;;;;;4969839;28;20027;-51
2021/08/09 10:20:16;;;;;;;5.03;2.65;;;21.70;99.90;;;;;;4969787;28;20725;-52
2021/08/09 10:23:00;;;;;;;3.30;1.98;;;21.60;99.90;;;;;;4963937;28;20515;-52
2021/08/09 10:25:53;;;;;;;5.68;2.00;;;21.40;99.90;;;;;;4969324;28;20027;-51
2021/08/09 10:28:19;;;;;;;5.05;2.20;;;21.30;99.90;;;;;;4968578;28;20030;-51
2021/08/09 10:30:45;;;;;;;6.32;2.13;;;21.20;99.90;;;;;;4968032;28;20023;-52
2021/08/09 10:33:11;;;;;;;3.47;1.77;;;21.30;99.90;;;;;;4969404;28;20031;-48
2021/08/09 10:35:40;;;;;;;7.18;1.98;;;21.30;99.90;;;;;;4964588;28;20446;-50
2021/08/09 10:38:23;;;;;;;2.75;1.67;;;21.30;99.90;;;;;;4965909;28;20102;-53
2021/08/09 10:41:01;;;;;;;3.70;1.90;;;21.20;99.90;;;;;;4953081;28;20066;-50
2021/08/09 10:43:27;;;;;;;6.40;1.80;;;21.10;99.90;;;;;;4961953;28;20095;-53
2021/08/09 10:45:52;;;;;;;2.25;1.48;;;21.10;99.90;;;;;;4968066;28;20029;-54
2021/08/09 10:48:46;;;;;;;3.28;1.90;;;21.10;99.90;;;;;;4969358;28;20102;-56
2021/08/09 10:51:12;;;;;;;3.20;1.80;;;21.10;99.90;;;;;;4965219;28;20563;-49
2021/08/09 10:53:43;;;;;;;5.03;2.03;;;21.10;99.90;;;;;;4969576;28;20027;-52
2021/08/09 10:56:09;;;;;;;5.15;1.73;;;21.10;99.90;;;;;;4967605;28;20027;-54
2021/08/09 10:58:41;;;;;;;5.50;1.80;;;21.10;99.90;;;;;;4969123;28;20035;-54
2021/08/09 11:01:10;;;;;;;2.65;1.38;;;21.20;99.90;;;;;;4968605;28;20446;-54
2021/08/09 11:04:02;;;;;;;5.38;1.48;;;21.30;99.90;;;;;;4967920;28;20205;-54
2021/08/09 11:06:57;;;;;;;3.70;1.55;;;21.30;99.90;;;;;;4968918;28;20031;-50
2021/08/09 11:09:35;;;;;;;4.35;2.10;;;21.20;99.90;;;;;;4966593;28;20039;-51
2021/08/09 11:12:12;;;;;;;3.85;1.35;;;21.20;99.90;;;;;;4968726;28;20037;-51
2021/08/09 11:15:07;;;;;;;3.30;1.33;;;21.20;99.90;;;;;;4968509;28;20019;-50
2021/08/09 11:17:54;;;;;;;4.25;1.48;;;21.40;99.90;;;;;;4968537;28;20023;-51
2021/08/09 11:20:22;;;;;;;2.13;1.20;;;21.50;99.90;;;;;;4968702;28;20015;-54
2021/08/09 11:23:00;;;;;;;4.03;1.38;;;21.50;99.90;;;;;;4969217;28;20501;-50
2021/08/09 11:25:48;;;;;;;4.32;1.40;;;21.60;99.90;;;;;;4955586;28;20123;-50
2021/08/09 11:28:22;;;;;;;3.50;1.63;;;21.70;99.90;;;;;;4950588;28;20031;-53
2021/08/09 11:30:57;;;;;;;4.05;1.80;;;21.80;99.90;;;;;;4950900;28;20117;-55
2021/08/09 11:33:48;;;;;;;2.58;1.42;;;22.00;99.90;;;;;;4950254;28;20085;-53
2021/08/09 11:36:15;;;;;;;3.92;1.58;;;22.00;99.90;;;;;;4950997;28;20051;-53
2021/08/09 11:38:41;;;;;;;1.38;1.05;;;22.00;99.90;;;;;;4952284;28;20054;-50
2021/08/09 11:41:12;;;;;;;3.67;1.90;;;22.00;99.90;;;;;;4954058;28;20110;-52
2021/08/09 11:43:39;;;;;;;2.47;1.67;;;22.00;99.90;;;;;;4958852;28;20027;-54
2021/08/09 11:46:08;;;;;;;5.07;1.70;;;22.00;99.90;;;;;;4968141;28;20070;-56
2021/08/09 11:48:36;;;;;;;2.40;1.70;;;22.00;99.90;;;;;;4968549;28;20015;-53
2021/08/09 11:51:06;;;;;;;3.63;1.25;;;21.90;99.90;;;;;;4968140;28;20105;-49
2021/08/09 11:53:33;;;;;;;4.13;1.55;;;21.80;99.90;;;;;;4968861;28;20512;-53
2021/08/09 11:56:08;;;;;;;4.22;1.35;;;21.70;99.90;;;;;;4969747;28;20089;-51
2021/08/09 11:58:33;;;;;;;2.28;1.10;;;21.80;99.90;;;;;;4966969;28;20168;-49
2021/08/09 12:00:59;;;;;;;2.72;1.27;;;21.80;99.90;;;;;;4971060;28;20102;-52
2021/08/09 12:03:28;;;;;;;8.00;1.90;;;21.80;99.90;;;;;;4972342;28;20051;-49
2021/08/09 12:05:56;;;;;;;3.80;1.63;;;21.80;99.90;;;;;;4972303;28;20621;-52
2021/08/09 12:08:25;;;;;;;5.45;1.60;;;21.90;99.90;;;;;;4973033;28;20018;-52
2021/08/09 12:10:51;;;;;;;3.00;1.20;;;22.00;99.90;;;;;;4969016;28;20029;-56
2021/08/09 12:13:25;;;;;;;3.80;1.70;;;22.20;99.90;;;;;;4972595;28;20023;-53
2021/08/09 12:16:18;;;;;;;2.28;1.48;;;22.40;99.90;;;;;;4972198;28;20521;-56
2021/08/09 12:18:54;;;;;;;6.32;1.75;;;22.40;99.80;;;;;;4968091;28;20034;-54
2021/08/09 12:21:20;;;;;;;2.05;1.20;;;22.10;99.40;;;;;;4964542;28;20034;-52
2021/08/09 12:23:57;;;;;;;2.95;1.15;;;22.00;98.60;;;;;;4971354;28;20033;-49
2021/08/09 12:26:29;;;;;;;2.63;1.05;;;21.70;99.70;;;;;;4965215;28;20026;-50
2021/08/09 12:28:59;;;;;;;3.67;1.55;;;21.60;99.90;;;;;;4972340;28;20033;-50
2021/08/09 12:31:29;;;;;;;1.60;1.48;;;21.40;99.90;;;;;;4972187;28;20027;-54
2021/08/09 12:34:04;;;;;;;2.17;1.30;;;21.40;99.90;;;;;;4971580;28;20461;-53
2021/08/09 12:36:30;;;;;;;3.17;1.70;;;21.40;99.90;;;;;;4971184;28;20102;-53
2021/08/09 12:38:55;;;;;;;3.60;1.20;;;21.40;99.90;;;;;;4972054;28;20478;-53
2021/08/09 12:41:30;;;;;;;4.82;1.40;;;21.40;99.90;;;;;;4971845;28;20038;-49
2021/08/09 12:43:58;;;;;;;1.92;1.30;;;21.50;99.90;;;;;;4971818;28;20030;-53
2021/08/09 12:46:24;;;;;;;2.22;1.30;;;21.50;99.90;;;;;;4970965;28;20117;-55
2021/08/09 12:48:51;;;;;;;1.50;1.38;;;21.40;99.90;;;;;;4965938;28;20114;-52
2021/08/09 12:51:18;;;;;;;3.20;1.40;;;21.40;99.90;;;;;;4971551;28;20019;-51
2021/08/09 12:53:43;;;;;;;4.47;1.80;;;21.40;99.90;;;;;;4967601;28;20078;-49